sensor_id;sensor_type;location;lat;lon;timestamp;temperature;humidity
31443;SHT31;18065;55.876;9.830;2023-02-28T00:01:09;22.25;49.23
31443;SHT31;18065;55.876;9.830;2023-02-28T00:03:38;22.24;49.24
31443;SHT31;18065;55.876;9.830;2023-02-28T00:06:06;22.24;49.22
31443;SHT31;18065;55.876;9.830;2023-02-28T00:08:35;22.24;49.19
31443;SHT31;18065;55.876;9.830;2023-02-28T00:11:04;22.24;49.16
31443;SHT31;18065;55.876;9.830;2023-02-28T00:13:33;22.27;49.17
31443;SHT31;18065;55.876;9.830;2023-02-28T00:16:03;22.24;49.15
31443;SHT31;18065;55.876;9.830;2023-02-28T00:18:34;22.24;49.17
31443;SHT31;18065;55.876;9.830;2023-02-28T00:21:03;22.22;49.17
31443;SHT31;18065;55.876;9.830;2023-02-28T00:23:31;22.21;49.16
31443;SHT31;18065;55.876;9.830;2023-02-28T00:26:00;22.22;49.12
31443;SHT31;18065;55.876;9.830;2023-02-28T00:28:28;22.21;49.15
31443;SHT31;18065;55.876;9.830;2023-02-28T00:30:56;22.24;49.13
31443;SHT31;18065;55.876;9.830;2023-02-28T00:33:25;22.21;49.15
31443;SHT31;18065;55.876;9.830;2023-02-28T00:36:03;22.18;49.13
31443;SHT31;18065;55.876;9.830;2023-02-28T00:38:31;22.21;49.11
31443;SHT31;18065;55.876;9.830;2023-02-28T00:41:00;22.21;49.08
31443;SHT31;18065;55.876;9.830;2023-02-28T00:43:31;22.20;49.08
31443;SHT31;18065;55.876;9.830;2023-02-28T00:45:59;22.24;49.08
31443;SHT31;18065;55.876;9.830;2023-02-28T00:48:28;22.20;49.08
31443;SHT31;18065;55.876;9.830;2023-02-28T00:50:56;22.18;49.06
31443;SHT31;18065;55.876;9.830;2023-02-28T00:53:27;22.20;49.05
31443;SHT31;18065;55.876;9.830;2023-02-28T00:55:57;22.20;49.07
31443;SHT31;18065;55.876;9.830;2023-02-28T00:58:26;22.20;49.02
31443;SHT31;18065;55.876;9.830;2023-02-28T01:00:54;22.17;49.06
31443;SHT31;18065;55.876;9.830;2023-02-28T01:03:23;22.17;49.04
31443;SHT31;18065;55.876;9.830;2023-02-28T01:05:51;22.17;49.03
31443;SHT31;18065;55.876;9.830;2023-02-28T01:08:21;22.16;49.03
31443;SHT31;18065;55.876;9.830;2023-02-28T01:10:52;22.14;49.01
31443;SHT31;18065;55.876;9.830;2023-02-28T01:13:20;22.16;49.07
31443;SHT31;18065;55.876;9.830;2023-02-28T01:15:50;22.14;49.03
31443;SHT31;18065;55.876;9.830;2023-02-28T01:18:19;22.16;49.03
31443;SHT31;18065;55.876;9.830;2023-02-28T01:20:48;22.14;49.09
31443;SHT31;18065;55.876;9.830;2023-02-28T01:23:18;22.14;49.04
31443;SHT31;18065;55.876;9.830;2023-02-28T01:25:46;22.14;49.05
31443;SHT31;18065;55.876;9.830;2023-02-28T01:28:17;22.13;49.06
31443;SHT31;18065;55.876;9.830;2023-02-28T01:30:47;22.13;49.05
31443;SHT31;18065;55.876;9.830;2023-02-28T01:33:15;22.14;49.03
31443;SHT31;18065;55.876;9.830;2023-02-28T01:35:44;22.13;49.02
31443;SHT31;18065;55.876;9.830;2023-02-28T01:38:12;22.11;49.01
31443;SHT31;18065;55.876;9.830;2023-02-28T01:40:41;22.13;49.04
31443;SHT31;18065;55.876;9.830;2023-02-28T01:43:10;22.11;49.00
31443;SHT31;18065;55.876;9.830;2023-02-28T01:45:47;22.13;48.99
31443;SHT31;18065;55.876;9.830;2023-02-28T01:48:16;22.11;48.98
31443;SHT31;18065;55.876;9.830;2023-02-28T01:50:45;22.11;49.02
31443;SHT31;18065;55.876;9.830;2023-02-28T01:53:15;22.08;49.02
31443;SHT31;18065;55.876;9.830;2023-02-28T01:55:46;22.10;48.98
31443;SHT31;18065;55.876;9.830;2023-02-28T01:58:17;22.11;48.97
31443;SHT31;18065;55.876;9.830;2023-02-28T02:00:48;22.10;48.95
31443;SHT31;18065;55.876;9.830;2023-02-28T02:03:17;22.10;48.95
31443;SHT31;18065;55.876;9.830;2023-02-28T02:05:46;22.08;48.95
31443;SHT31;18065;55.876;9.830;2023-02-28T02:08:16;22.08;48.95
31443;SHT31;18065;55.876;9.830;2023-02-28T02:10:46;22.08;48.94
31443;SHT31;18065;55.876;9.830;2023-02-28T02:13:24;22.07;48.95
31443;SHT31;18065;55.876;9.830;2023-02-28T02:16:00;22.07;48.96
31443;SHT31;18065;55.876;9.830;2023-02-28T02:18:31;22.07;48.99
31443;SHT31;18065;55.876;9.830;2023-02-28T02:21:13;22.07;48.94
31443;SHT31;18065;55.876;9.830;2023-02-28T02:23:49;22.06;48.95
31443;SHT31;18065;55.876;9.830;2023-02-28T02:29:14;22.06;48.93
31443;SHT31;18065;55.876;9.830;2023-02-28T02:31:53;22.03;48.97
31443;SHT31;18065;55.876;9.830;2023-02-28T02:34:37;22.04;48.99
31443;SHT31;18065;55.876;9.830;2023-02-28T02:37:10;22.04;48.96
31443;SHT31;18065;55.876;9.830;2023-02-28T02:39:44;22.04;48.98
31443;SHT31;18065;55.876;9.830;2023-02-28T02:42:16;22.03;48.96
31443;SHT31;18065;55.876;9.830;2023-02-28T02:44:46;22.04;48.92
31443;SHT31;18065;55.876;9.830;2023-02-28T02:47:17;22.03;48.94
31443;SHT31;18065;55.876;9.830;2023-02-28T02:49:49;22.03;48.93
31443;SHT31;18065;55.876;9.830;2023-02-28T02:52:20;22.03;48.92
31443;SHT31;18065;55.876;9.830;2023-02-28T02:54:50;22.03;48.92
31443;SHT31;18065;55.876;9.830;2023-02-28T02:57:21;22.00;48.90
31443;SHT31;18065;55.876;9.830;2023-02-28T02:59:51;22.00;48.89
31443;SHT31;18065;55.876;9.830;2023-02-28T03:02:20;22.01;48.90
31443;SHT31;18065;55.876;9.830;2023-02-28T03:04:56;22.00;48.89
31443;SHT31;18065;55.876;9.830;2023-02-28T03:07:26;22.00;48.91
31443;SHT31;18065;55.876;9.830;2023-02-28T03:09:55;21.96;48.91
31443;SHT31;18065;55.876;9.830;2023-02-28T03:12:26;21.96;48.93
31443;SHT31;18065;55.876;9.830;2023-02-28T03:15:00;21.98;48.91
31443;SHT31;18065;55.876;9.830;2023-02-28T03:17:35;22.00;48.87
31443;SHT31;18065;55.876;9.830;2023-02-28T03:20:11;21.98;48.86
31443;SHT31;18065;55.876;9.830;2023-02-28T03:22:49;21.98;48.86
31443;SHT31;18065;55.876;9.830;2023-02-28T03:25:26;21.97;48.86
31443;SHT31;18065;55.876;9.830;2023-02-28T03:27:59;21.98;48.82
31443;SHT31;18065;55.876;9.830;2023-02-28T03:30:31;21.96;48.81
31443;SHT31;18065;55.876;9.830;2023-02-28T03:33:02;21.97;48.80
31443;SHT31;18065;55.876;9.830;2023-02-28T03:35:36;21.96;48.78
31443;SHT31;18065;55.876;9.830;2023-02-28T03:38:06;21.96;48.78
31443;SHT31;18065;55.876;9.830;2023-02-28T03:40:39;21.94;48.78
31443;SHT31;18065;55.876;9.830;2023-02-28T03:43:10;21.94;48.75
31443;SHT31;18065;55.876;9.830;2023-02-28T03:45:40;21.96;48.79
31443;SHT31;18065;55.876;9.830;2023-02-28T03:48:11;21.94;48.77
31443;SHT31;18065;55.876;9.830;2023-02-28T03:50:44;21.94;48.80
31443;SHT31;18065;55.876;9.830;2023-02-28T03:53:14;21.93;48.76
31443;SHT31;18065;55.876;9.830;2023-02-28T03:55:44;21.94;48.78
31443;SHT31;18065;55.876;9.830;2023-02-28T03:58:14;21.93;48.79
31443;SHT31;18065;55.876;9.830;2023-02-28T04:00:44;21.93;48.81
31443;SHT31;18065;55.876;9.830;2023-02-28T04:03:14;21.93;48.79
31443;SHT31;18065;55.876;9.830;2023-02-28T04:05:50;21.92;48.76
31443;SHT31;18065;55.876;9.830;2023-02-28T04:08:19;21.92;48.74
31443;SHT31;18065;55.876;9.830;2023-02-28T04:10:49;21.90;48.76
31443;SHT31;18065;55.876;9.830;2023-02-28T04:13:19;21.90;48.74
31443;SHT31;18065;55.876;9.830;2023-02-28T04:15:47;21.92;48.72
31443;SHT31;18065;55.876;9.830;2023-02-28T04:18:16;21.92;48.76
31443;SHT31;18065;55.876;9.830;2023-02-28T04:20:44;21.90;48.76
31443;SHT31;18065;55.876;9.830;2023-02-28T04:23:15;21.90;48.71
31443;SHT31;18065;55.876;9.830;2023-02-28T04:25:44;21.89;48.68
31443;SHT31;18065;55.876;9.830;2023-02-28T04:28:12;21.89;48.69
31443;SHT31;18065;55.876;9.830;2023-02-28T04:30:40;21.90;48.68
31443;SHT31;18065;55.876;9.830;2023-02-28T04:33:09;21.90;48.65
31443;SHT31;18065;55.876;9.830;2023-02-28T04:35:37;21.87;48.69
31443;SHT31;18065;55.876;9.830;2023-02-28T04:38:05;21.86;48.69
31443;SHT31;18065;55.876;9.830;2023-02-28T04:40:36;21.89;48.66
31443;SHT31;18065;55.876;9.830;2023-02-28T04:43:05;21.86;48.63
31443;SHT31;18065;55.876;9.830;2023-02-28T04:45:33;21.87;48.65
31443;SHT31;18065;55.876;9.830;2023-02-28T04:48:03;21.89;48.68
31443;SHT31;18065;55.876;9.830;2023-02-28T04:50:31;21.87;48.65
31443;SHT31;18065;55.876;9.830;2023-02-28T04:52:59;21.86;48.65
31443;SHT31;18065;55.876;9.830;2023-02-28T04:55:28;21.86;48.64
31443;SHT31;18065;55.876;9.830;2023-02-28T04:57:59;21.86;48.63
31443;SHT31;18065;55.876;9.830;2023-02-28T05:00:27;21.84;48.59
31443;SHT31;18065;55.876;9.830;2023-02-28T05:02:55;21.86;48.59
31443;SHT31;18065;55.876;9.830;2023-02-28T05:05:24;21.86;48.58
31443;SHT31;18065;55.876;9.830;2023-02-28T05:07:52;21.83;48.57
31443;SHT31;18065;55.876;9.830;2023-02-28T05:10:21;21.84;48.60
31443;SHT31;18065;55.876;9.830;2023-02-28T05:12:49;21.84;48.59
31443;SHT31;18065;55.876;9.830;2023-02-28T05:15:21;21.83;48.55
31443;SHT31;18065;55.876;9.830;2023-02-28T05:17:49;21.80;48.57
31443;SHT31;18065;55.876;9.830;2023-02-28T05:20:18;21.81;48.54
31443;SHT31;18065;55.876;9.830;2023-02-28T05:22:46;21.81;48.54
31443;SHT31;18065;55.876;9.830;2023-02-28T05:25:16;21.80;48.54
31443;SHT31;18065;55.876;9.830;2023-02-28T05:27:46;21.81;48.56
31443;SHT31;18065;55.876;9.830;2023-02-28T05:30:15;21.81;48.51
31443;SHT31;18065;55.876;9.830;2023-02-28T05:32:49;21.80;48.49
31443;SHT31;18065;55.876;9.830;2023-02-28T05:35:17;21.80;48.53
31443;SHT31;18065;55.876;9.830;2023-02-28T05:37:46;21.80;48.47
31443;SHT31;18065;55.876;9.830;2023-02-28T05:40:14;21.80;48.47
31443;SHT31;18065;55.876;9.830;2023-02-28T05:42:44;21.79;48.49
31443;SHT31;18065;55.876;9.830;2023-02-28T05:45:13;21.77;48.53
31443;SHT31;18065;55.876;9.830;2023-02-28T05:47:42;21.80;48.53
31443;SHT31;18065;55.876;9.830;2023-02-28T05:50:13;21.76;48.53
31443;SHT31;18065;55.876;9.830;2023-02-28T05:52:41;21.76;48.50
31443;SHT31;18065;55.876;9.830;2023-02-28T05:55:10;21.74;48.51
31443;SHT31;18065;55.876;9.830;2023-02-28T05:57:38;21.77;48.54
31443;SHT31;18065;55.876;9.830;2023-02-28T06:00:08;21.79;48.53
31443;SHT31;18065;55.876;9.830;2023-02-28T06:02:37;21.74;48.57
31443;SHT31;18065;55.876;9.830;2023-02-28T06:05:07;21.74;48.58
31443;SHT31;18065;55.876;9.830;2023-02-28T06:07:39;21.74;48.57
31443;SHT31;18065;55.876;9.830;2023-02-28T06:10:08;21.73;48.55
31443;SHT31;18065;55.876;9.830;2023-02-28T06:12:37;21.74;48.53
31443;SHT31;18065;55.876;9.830;2023-02-28T06:15:07;21.74;48.57
31443;SHT31;18065;55.876;9.830;2023-02-28T06:17:36;21.74;48.53
31443;SHT31;18065;55.876;9.830;2023-02-28T06:20:05;21.74;48.52
31443;SHT31;18065;55.876;9.830;2023-02-28T06:22:34;21.74;48.51
31443;SHT31;18065;55.876;9.830;2023-02-28T06:25:06;21.71;48.50
31443;SHT31;18065;55.876;9.830;2023-02-28T06:27:34;21.70;48.51
31443;SHT31;18065;55.876;9.830;2023-02-28T06:30:03;21.71;48.53
31443;SHT31;18065;55.876;9.830;2023-02-28T06:32:31;21.73;48.53
31443;SHT31;18065;55.876;9.830;2023-02-28T06:35:01;21.71;48.52
31443;SHT31;18065;55.876;9.830;2023-02-28T06:37:30;21.71;48.48
31443;SHT31;18065;55.876;9.830;2023-02-28T06:39:58;21.70;48.48
31443;SHT31;18065;55.876;9.830;2023-02-28T06:42:29;21.70;48.49
31443;SHT31;18065;55.876;9.830;2023-02-28T06:44:58;21.67;48.51
31443;SHT31;18065;55.876;9.830;2023-02-28T06:47:30;21.67;48.50
31443;SHT31;18065;55.876;9.830;2023-02-28T06:49:58;21.67;48.52
31443;SHT31;18065;55.876;9.830;2023-02-28T06:52:27;21.69;48.50
31443;SHT31;18065;55.876;9.830;2023-02-28T06:54:55;21.69;48.50
31443;SHT31;18065;55.876;9.830;2023-02-28T06:57:31;21.67;48.46
31443;SHT31;18065;55.876;9.830;2023-02-28T06:59:59;21.70;48.46
31443;SHT31;18065;55.876;9.830;2023-02-28T07:02:29;21.66;48.50
31443;SHT31;18065;55.876;9.830;2023-02-28T07:04:57;21.66;48.53
31443;SHT31;18065;55.876;9.830;2023-02-28T07:07:25;21.69;48.53
31443;SHT31;18065;55.876;9.830;2023-02-28T07:09:54;21.70;48.46
31443;SHT31;18065;55.876;9.830;2023-02-28T07:12:22;21.69;48.43
31443;SHT31;18065;55.876;9.830;2023-02-28T07:14:53;21.70;48.42
31443;SHT31;18065;55.876;9.830;2023-02-28T07:17:22;21.73;48.40
31443;SHT31;18065;55.876;9.830;2023-02-28T07:19:50;21.71;48.39
31443;SHT31;18065;55.876;9.830;2023-02-28T07:22:19;21.76;48.38
31443;SHT31;18065;55.876;9.830;2023-02-28T07:24:47;21.76;48.35
31443;SHT31;18065;55.876;9.830;2023-02-28T07:27:16;21.77;48.30
31443;SHT31;18065;55.876;9.830;2023-02-28T07:29:53;21.79;48.30
31443;SHT31;18065;55.876;9.830;2023-02-28T07:32:21;21.80;48.33
31443;SHT31;18065;55.876;9.830;2023-02-28T07:34:50;21.79;48.31
31443;SHT31;18065;55.876;9.830;2023-02-28T07:37:18;21.81;48.28
31443;SHT31;18065;55.876;9.830;2023-02-28T07:39:46;21.84;48.29
31443;SHT31;18065;55.876;9.830;2023-02-28T07:42:16;21.83;48.30
31443;SHT31;18065;55.876;9.830;2023-02-28T07:44:44;21.84;48.29
31443;SHT31;18065;55.876;9.830;2023-02-28T07:47:16;21.87;48.28
31443;SHT31;18065;55.876;9.830;2023-02-28T07:49:45;21.83;48.33
31443;SHT31;18065;55.876;9.830;2023-02-28T07:52:13;21.84;48.35
31443;SHT31;18065;55.876;9.830;2023-02-28T07:54:41;21.83;48.35
31443;SHT31;18065;55.876;9.830;2023-02-28T07:57:10;21.86;48.38
31443;SHT31;18065;55.876;9.830;2023-02-28T07:59:38;21.86;48.39
31443;SHT31;18065;55.876;9.830;2023-02-28T08:02:06;21.86;48.44
31443;SHT31;18065;55.876;9.830;2023-02-28T08:04:38;21.84;48.44
31443;SHT31;18065;55.876;9.830;2023-02-28T08:07:06;21.86;48.48
31443;SHT31;18065;55.876;9.830;2023-02-28T08:09:38;21.86;48.46
31443;SHT31;18065;55.876;9.830;2023-02-28T08:12:07;21.87;48.46
31443;SHT31;18065;55.876;9.830;2023-02-28T08:14:35;21.87;48.52
31443;SHT31;18065;55.876;9.830;2023-02-28T08:17:04;21.86;48.48
31443;SHT31;18065;55.876;9.830;2023-02-28T08:19:33;21.89;48.50
31443;SHT31;18065;55.876;9.830;2023-02-28T08:22:04;21.89;48.51
31443;SHT31;18065;55.876;9.830;2023-02-28T08:24:32;21.90;48.47
31443;SHT31;18065;55.876;9.830;2023-02-28T08:27:01;21.90;48.50
31443;SHT31;18065;55.876;9.830;2023-02-28T08:29:29;21.90;48.49
31443;SHT31;18065;55.876;9.830;2023-02-28T08:31:58;21.92;48.52
31443;SHT31;18065;55.876;9.830;2023-02-28T08:34:26;21.90;48.51
31443;SHT31;18065;55.876;9.830;2023-02-28T08:36:55;21.93;48.47
31443;SHT31;18065;55.876;9.830;2023-02-28T08:39:26;21.92;48.49
31443;SHT31;18065;55.876;9.830;2023-02-28T08:41:54;21.94;48.50
31443;SHT31;18065;55.876;9.830;2023-02-28T08:44:22;21.92;48.50
31443;SHT31;18065;55.876;9.830;2023-02-28T08:46:51;21.94;48.50
31443;SHT31;18065;55.876;9.830;2023-02-28T08:49:19;21.94;48.47
31443;SHT31;18065;55.876;9.830;2023-02-28T08:51:47;21.94;48.50
31443;SHT31;18065;55.876;9.830;2023-02-28T08:54:15;21.94;48.46
31443;SHT31;18065;55.876;9.830;2023-02-28T08:56:47;21.94;48.43
31443;SHT31;18065;55.876;9.830;2023-02-28T08:59:15;21.94;48.45
31443;SHT31;18065;55.876;9.830;2023-02-28T09:01:44;21.98;48.50
31443;SHT31;18065;55.876;9.830;2023-02-28T09:04:12;22.00;48.45
31443;SHT31;18065;55.876;9.830;2023-02-28T09:06:41;21.97;48.42
31443;SHT31;18065;55.876;9.830;2023-02-28T09:09:09;22.00;48.40
31443;SHT31;18065;55.876;9.830;2023-02-28T09:11:37;21.97;48.40
31443;SHT31;18065;55.876;9.830;2023-02-28T09:14:08;21.98;48.44
31443;SHT31;18065;55.876;9.830;2023-02-28T09:16:37;21.97;48.46
31443;SHT31;18065;55.876;9.830;2023-02-28T09:19:05;22.00;48.50
31443;SHT31;18065;55.876;9.830;2023-02-28T09:21:33;22.00;48.43
31443;SHT31;18065;55.876;9.830;2023-02-28T09:24:02;22.03;48.42
31443;SHT31;18065;55.876;9.830;2023-02-28T09:26:30;22.01;48.42
31443;SHT31;18065;55.876;9.830;2023-02-28T09:28:59;21.98;48.40
31443;SHT31;18065;55.876;9.830;2023-02-28T09:31:30;22.01;48.45
31443;SHT31;18065;55.876;9.830;2023-02-28T09:33:59;22.00;48.38
31443;SHT31;18065;55.876;9.830;2023-02-28T09:36:27;22.03;48.44
31443;SHT31;18065;55.876;9.830;2023-02-28T09:38:56;22.01;48.45
31443;SHT31;18065;55.876;9.830;2023-02-28T09:41:25;22.03;48.41
31443;SHT31;18065;55.876;9.830;2023-02-28T09:43:55;22.01;48.46
31443;SHT31;18065;55.876;9.830;2023-02-28T09:46:27;22.03;48.48
31443;SHT31;18065;55.876;9.830;2023-02-28T09:48:59;22.04;48.41
31443;SHT31;18065;55.876;9.830;2023-02-28T09:51:33;22.01;48.41
31443;SHT31;18065;55.876;9.830;2023-02-28T09:54:04;22.03;48.45
31443;SHT31;18065;55.876;9.830;2023-02-28T09:56:33;22.04;48.41
31443;SHT31;18065;55.876;9.830;2023-02-28T09:59:05;22.08;48.45
31443;SHT31;18065;55.876;9.830;2023-02-28T10:01:39;22.06;48.40
31443;SHT31;18065;55.876;9.830;2023-02-28T10:04:16;22.06;48.43
31443;SHT31;18065;55.876;9.830;2023-02-28T10:06:45;22.07;48.41
31443;SHT31;18065;55.876;9.830;2023-02-28T10:09:15;22.07;48.46
31443;SHT31;18065;55.876;9.830;2023-02-28T10:11:45;22.04;48.47
31443;SHT31;18065;55.876;9.830;2023-02-28T10:14:15;22.06;48.42
31443;SHT31;18065;55.876;9.830;2023-02-28T10:16:46;22.08;48.43
31443;SHT31;18065;55.876;9.830;2023-02-28T10:19:21;22.06;48.42
31443;SHT31;18065;55.876;9.830;2023-02-28T10:21:54;22.06;48.42
31443;SHT31;18065;55.876;9.830;2023-02-28T10:24:29;22.06;48.40
31443;SHT31;18065;55.876;9.830;2023-02-28T10:26:59;22.08;48.42
31443;SHT31;18065;55.876;9.830;2023-02-28T10:29:28;22.07;48.44
31443;SHT31;18065;55.876;9.830;2023-02-28T10:32:00;22.07;48.41
31443;SHT31;18065;55.876;9.830;2023-02-28T10:34:32;22.07;48.44
31443;SHT31;18065;55.876;9.830;2023-02-28T10:37:00;22.07;48.46
31443;SHT31;18065;55.876;9.830;2023-02-28T10:39:38;22.07;48.41
31443;SHT31;18065;55.876;9.830;2023-02-28T10:42:18;22.07;48.44
31443;SHT31;18065;55.876;9.830;2023-02-28T10:44:47;22.07;48.49
31443;SHT31;18065;55.876;9.830;2023-02-28T10:47:15;22.08;48.42
31443;SHT31;18065;55.876;9.830;2023-02-28T10:49:50;22.07;48.35
31443;SHT31;18065;55.876;9.830;2023-02-28T10:52:32;22.07;48.42
31443;SHT31;18065;55.876;9.830;2023-02-28T10:55:13;22.07;48.42
31443;SHT31;18065;55.876;9.830;2023-02-28T10:57:42;22.10;48.36
31443;SHT31;18065;55.876;9.830;2023-02-28T11:00:13;22.06;48.42
31443;SHT31;18065;55.876;9.830;2023-02-28T11:02:42;22.07;48.42
31443;SHT31;18065;55.876;9.830;2023-02-28T11:08:12;22.04;48.41
31443;SHT31;18065;55.876;9.830;2023-02-28T11:10:43;22.06;48.46
31443;SHT31;18065;55.876;9.830;2023-02-28T11:13:16;22.07;48.41
31443;SHT31;18065;55.876;9.830;2023-02-28T11:15:49;22.06;48.41
31443;SHT31;18065;55.876;9.830;2023-02-28T11:18:20;22.07;48.43
31443;SHT31;18065;55.876;9.830;2023-02-28T11:20:49;22.06;48.44
31443;SHT31;18065;55.876;9.830;2023-02-28T11:23:21;22.07;48.49
31443;SHT31;18065;55.876;9.830;2023-02-28T11:25:51;22.06;48.40
31443;SHT31;18065;55.876;9.830;2023-02-28T11:28:27;22.06;48.43
31443;SHT31;18065;55.876;9.830;2023-02-28T11:31:00;22.06;48.48
31443;SHT31;18065;55.876;9.830;2023-02-28T11:33:29;22.06;48.48
31443;SHT31;18065;55.876;9.830;2023-02-28T11:35:59;22.06;48.41
31443;SHT31;18065;55.876;9.830;2023-02-28T11:38:31;22.06;48.39
31443;SHT31;18065;55.876;9.830;2023-02-28T11:41:08;22.06;48.36
31443;SHT31;18065;55.876;9.830;2023-02-28T11:43:44;22.04;48.44
31443;SHT31;18065;55.876;9.830;2023-02-28T11:46:17;22.04;48.42
31443;SHT31;18065;55.876;9.830;2023-02-28T11:48:49;22.03;48.46
31443;SHT31;18065;55.876;9.830;2023-02-28T11:51:21;22.06;48.44
31443;SHT31;18065;55.876;9.830;2023-02-28T11:54:07;22.04;48.44
31443;SHT31;18065;55.876;9.830;2023-02-28T11:56:41;22.06;48.43
31443;SHT31;18065;55.876;9.830;2023-02-28T11:59:14;22.04;48.43
31443;SHT31;18065;55.876;9.830;2023-02-28T12:02:03;22.04;48.40
31443;SHT31;18065;55.876;9.830;2023-02-28T12:04:35;22.04;48.42
31443;SHT31;18065;55.876;9.830;2023-02-28T12:07:11;22.04;48.45
31443;SHT31;18065;55.876;9.830;2023-02-28T12:09:46;22.01;48.41
31443;SHT31;18065;55.876;9.830;2023-02-28T12:12:23;22.03;48.45
31443;SHT31;18065;55.876;9.830;2023-02-28T12:17:44;22.04;48.43
31443;SHT31;18065;55.876;9.830;2023-02-28T12:20:17;22.03;48.36
31443;SHT31;18065;55.876;9.830;2023-02-28T12:22:49;22.04;48.39
31443;SHT31;18065;55.876;9.830;2023-02-28T12:28:20;22.04;48.45
31443;SHT31;18065;55.876;9.830;2023-02-28T12:30:50;22.03;48.37
31443;SHT31;18065;55.876;9.830;2023-02-28T12:33:22;22.04;48.41
31443;SHT31;18065;55.876;9.830;2023-02-28T12:35:54;22.00;48.38
31443;SHT31;18065;55.876;9.830;2023-02-28T12:38:24;22.03;48.44
31443;SHT31;18065;55.876;9.830;2023-02-28T12:40:54;22.01;48.42
31443;SHT31;18065;55.876;9.830;2023-02-28T12:43:27;22.01;48.35
31443;SHT31;18065;55.876;9.830;2023-02-28T12:45:59;22.01;48.36
31443;SHT31;18065;55.876;9.830;2023-02-28T12:48:30;22.03;48.45
31443;SHT31;18065;55.876;9.830;2023-02-28T12:50:59;22.04;48.46
31443;SHT31;18065;55.876;9.830;2023-02-28T12:53:30;22.00;48.48
31443;SHT31;18065;55.876;9.830;2023-02-28T12:56:04;22.01;48.48
31443;SHT31;18065;55.876;9.830;2023-02-28T12:58:39;22.00;48.47
31443;SHT31;18065;55.876;9.830;2023-02-28T13:01:20;22.00;48.46
31443;SHT31;18065;55.876;9.830;2023-02-28T13:04:01;22.01;48.51
31443;SHT31;18065;55.876;9.830;2023-02-28T13:06:45;21.98;48.51
31443;SHT31;18065;55.876;9.830;2023-02-28T13:09:20;22.00;48.47
31443;SHT31;18065;55.876;9.830;2023-02-28T13:11:50;22.03;48.49
31443;SHT31;18065;55.876;9.830;2023-02-28T13:14:23;22.01;48.51
31443;SHT31;18065;55.876;9.830;2023-02-28T13:16:56;22.03;48.41
31443;SHT31;18065;55.876;9.830;2023-02-28T13:19:25;22.01;48.51
31443;SHT31;18065;55.876;9.830;2023-02-28T13:21:57;21.98;48.51
31443;SHT31;18065;55.876;9.830;2023-02-28T13:24:43;22.03;48.50
31443;SHT31;18065;55.876;9.830;2023-02-28T13:30:01;22.00;48.54
31443;SHT31;18065;55.876;9.830;2023-02-28T13:32:34;22.01;48.50
31443;SHT31;18065;55.876;9.830;2023-02-28T13:35:34;22.00;48.52
31443;SHT31;18065;55.876;9.830;2023-02-28T13:38:15;22.00;48.58
31443;SHT31;18065;55.876;9.830;2023-02-28T13:40:43;22.00;48.54
31443;SHT31;18065;55.876;9.830;2023-02-28T13:43:12;21.98;48.49
31443;SHT31;18065;55.876;9.830;2023-02-28T13:48:30;22.00;48.51
31443;SHT31;18065;55.876;9.830;2023-02-28T13:50:58;22.00;48.58
31443;SHT31;18065;55.876;9.830;2023-02-28T13:53:29;22.00;48.57
31443;SHT31;18065;55.876;9.830;2023-02-28T13:56:03;22.03;48.53
31443;SHT31;18065;55.876;9.830;2023-02-28T13:58:39;22.00;48.56
31443;SHT31;18065;55.876;9.830;2023-02-28T14:01:20;22.00;48.58
31443;SHT31;18065;55.876;9.830;2023-02-28T14:04:01;21.97;48.58
31443;SHT31;18065;55.876;9.830;2023-02-28T14:06:32;21.98;48.59
31443;SHT31;18065;55.876;9.830;2023-02-28T14:09:02;21.98;48.62
31443;SHT31;18065;55.876;9.830;2023-02-28T14:11:33;22.00;48.60
31443;SHT31;18065;55.876;9.830;2023-02-28T14:14:03;22.00;48.61
31443;SHT31;18065;55.876;9.830;2023-02-28T14:16:36;21.98;48.58
31443;SHT31;18065;55.876;9.830;2023-02-28T14:19:09;21.98;48.61
31443;SHT31;18065;55.876;9.830;2023-02-28T14:21:43;22.00;48.62
31443;SHT31;18065;55.876;9.830;2023-02-28T14:32:32;22.01;48.63
31443;SHT31;18065;55.876;9.830;2023-02-28T14:35:05;21.98;48.59
31443;SHT31;18065;55.876;9.830;2023-02-28T14:37:41;22.00;48.61
31443;SHT31;18065;55.876;9.830;2023-02-28T14:40:14;21.98;48.63
31443;SHT31;18065;55.876;9.830;2023-02-28T14:42:46;21.98;48.64
31443;SHT31;18065;55.876;9.830;2023-02-28T14:45:18;22.01;48.66
31443;SHT31;18065;55.876;9.830;2023-02-28T14:47:47;21.98;48.60
31443;SHT31;18065;55.876;9.830;2023-02-28T14:50:20;21.98;48.63
31443;SHT31;18065;55.876;9.830;2023-02-28T14:52:51;22.03;48.61
31443;SHT31;18065;55.876;9.830;2023-02-28T14:55:22;21.98;48.62
31443;SHT31;18065;55.876;9.830;2023-02-28T14:57:52;21.97;48.63
31443;SHT31;18065;55.876;9.830;2023-02-28T15:00:21;21.97;48.64
31443;SHT31;18065;55.876;9.830;2023-02-28T15:02:50;22.01;48.62
31443;SHT31;18065;55.876;9.830;2023-02-28T15:05:24;22.00;48.65
31443;SHT31;18065;55.876;9.830;2023-02-28T15:08:03;21.98;48.65
31443;SHT31;18065;55.876;9.830;2023-02-28T15:10:32;21.97;48.66
31443;SHT31;18065;55.876;9.830;2023-02-28T15:13:02;22.00;48.71
31443;SHT31;18065;55.876;9.830;2023-02-28T15:15:33;21.98;48.67
31443;SHT31;18065;55.876;9.830;2023-02-28T15:18:04;22.01;48.69
31443;SHT31;18065;55.876;9.830;2023-02-28T15:20:35;22.00;48.71
31443;SHT31;18065;55.876;9.830;2023-02-28T15:23:06;22.01;48.69
31443;SHT31;18065;55.876;9.830;2023-02-28T15:25:35;22.01;48.69
31443;SHT31;18065;55.876;9.830;2023-02-28T15:28:03;22.00;48.71
31443;SHT31;18065;55.876;9.830;2023-02-28T15:30:32;21.98;48.72
31443;SHT31;18065;55.876;9.830;2023-02-28T15:33:05;22.00;48.66
31443;SHT31;18065;55.876;9.830;2023-02-28T15:35:39;22.00;48.67
31443;SHT31;18065;55.876;9.830;2023-02-28T15:38:13;21.97;48.69
31443;SHT31;18065;55.876;9.830;2023-02-28T15:40:43;21.98;48.71
31443;SHT31;18065;55.876;9.830;2023-02-28T15:43:22;21.98;48.66
31443;SHT31;18065;55.876;9.830;2023-02-28T15:45:55;21.97;48.70
31443;SHT31;18065;55.876;9.830;2023-02-28T15:48:24;21.98;48.72
31443;SHT31;18065;55.876;9.830;2023-02-28T15:50:58;22.00;48.70
31443;SHT31;18065;55.876;9.830;2023-02-28T15:53:30;21.98;48.70
31443;SHT31;18065;55.876;9.830;2023-02-28T15:56:00;21.98;48.71
31443;SHT31;18065;55.876;9.830;2023-02-28T15:58:29;22.01;48.74
31443;SHT31;18065;55.876;9.830;2023-02-28T16:01:04;22.00;48.74
31443;SHT31;18065;55.876;9.830;2023-02-28T16:03:38;21.98;48.74
31443;SHT31;18065;55.876;9.830;2023-02-28T16:06:12;22.00;48.74
31443;SHT31;18065;55.876;9.830;2023-02-28T16:08:48;22.00;48.71
31443;SHT31;18065;55.876;9.830;2023-02-28T16:11:18;21.97;48.74
31443;SHT31;18065;55.876;9.830;2023-02-28T16:13:47;21.98;48.73
31443;SHT31;18065;55.876;9.830;2023-02-28T16:16:16;21.98;48.72
31443;SHT31;18065;55.876;9.830;2023-02-28T16:18:45;22.00;48.70